Time;durP1;ratioP1;P1;durP2;ratioP2;P2;SDS_P1;SDS_P2;PMS_P1;PMS_P2;Temp;Humidity;BMP_temperature;BMP_pressure;BME280_temperature;BME280_humidity;BME280_pressure;Samples;Min_cycle;Max_cycle;Signal;HPM_P1;HPM_P2
2021/05/15 00:00:15;;;;;;;6.07;1.10;;;25.90;99.90;;;;;;5035822;28;20221;-90
2021/05/15 00:02:44;;;;;;;4.43;1.03;;;26.10;99.90;;;;;;5038639;28;20201;-90
2021/05/15 00:05:12;;;;;;;0.80;0.73;;;25.90;99.90;;;;;;5037840;28;20212;-91
2021/05/15 00:07:41;;;;;;;1.90;1.00;;;25.80;99.90;;;;;;5037187;28;20244;-90
2021/05/15 00:10:14;;;;;;;2.77;1.17;;;25.90;99.90;;;;;;5037882;28;20533;-91
2021/05/15 00:12:44;;;;;;;1.73;1.10;;;25.90;99.90;;;;;;5036908;28;20197;-90
2021/05/15 00:15:14;;;;;;;1.40;0.80;;;26.10;99.90;;;;;;5019415;28;20207;-91
2021/05/15 00:17:44;;;;;;;1.70;0.90;;;26.10;99.90;;;;;;5039509;28;20224;-90
2021/05/15 00:20:15;;;;;;;2.80;0.80;;;26.00;99.90;;;;;;5035372;28;20202;-91
2021/05/15 00:22:45;;;;;;;3.53;1.00;;;26.10;99.90;;;;;;5036815;28;20288;-90
2021/05/15 00:25:19;;;;;;;2.47;0.90;;;26.20;99.90;;;;;;5036527;28;20228;-88
2021/05/15 00:27:47;;;;;;;3.37;1.10;;;26.10;99.90;;;;;;5035689;28;20220;-87
2021/05/15 00:30:18;;;;;;;4.07;0.90;;;25.90;99.90;;;;;;5018029;28;20290;-89
2021/05/15 00:32:47;;;;;;;2.10;0.90;;;26.00;99.90;;;;;;5036274;28;20259;-89
2021/05/15 00:35:16;;;;;;;4.50;1.17;;;26.10;99.90;;;;;;5035873;28;20339;-89
2021/05/15 00:37:48;;;;;;;3.17;1.13;;;26.00;99.90;;;;;;5005147;28;20774;-89
2021/05/15 00:40:20;;;;;;;3.73;1.33;;;26.00;99.90;;;;;;5048453;28;20193;-90
2021/05/15 00:42:48;;;;;;;4.33;1.03;;;25.80;99.90;;;;;;5056465;28;20227;-88
2021/05/15 00:45:17;;;;;;;2.93;1.00;;;25.60;99.90;;;;;;5037399;28;20208;-89
2021/05/15 00:47:46;;;;;;;1.83;1.00;;;25.60;99.90;;;;;;5045094;28;20229;-88
2021/05/15 00:50:15;;;;;;;2.10;1.10;;;25.40;99.90;;;;;;5035542;28;20201;-89
2021/05/15 00:52:43;;;;;;;3.90;1.00;;;25.50;99.90;;;;;;5022336;28;20205;-89
2021/05/15 00:55:13;;;;;;;1.03;0.70;;;25.30;99.90;;;;;;5035447;28;20205;-89
2021/05/15 00:57:44;;;;;;;2.60;0.87;;;25.20;99.90;;;;;;5035830;28;20193;-89
2021/05/15 01:00:16;;;;;;;4.00;1.20;;;25.30;99.90;;;;;;5034660;28;20255;-89
2021/05/15 01:02:44;;;;;;;1.87;1.10;;;25.40;99.90;;;;;;5035803;28;20217;-89
2021/05/15 01:05:14;;;;;;;2.50;1.00;;;25.90;99.90;;;;;;5035376;28;20212;-89
2021/05/15 01:07:46;;;;;;;3.33;0.97;;;26.50;99.90;;;;;;5035306;28;20641;-89
2021/05/15 01:10:16;;;;;;;4.10;0.90;;;27.00;99.90;;;;;;5034552;28;20658;-88
2021/05/15 01:12:54;;;;;;;4.17;1.10;;;27.50;99.90;;;;;;5018938;28;20207;-88
2021/05/15 01:15:24;;;;;;;3.17;0.90;;;27.80;99.50;;;;;;5036193;28;20208;-89
2021/05/15 01:17:53;;;;;;;5.67;1.10;;;27.50;99.90;;;;;;5036410;28;20248;-90
2021/05/15 01:20:23;;;;;;;2.80;1.00;;;26.80;99.90;;;;;;5034857;28;20568;-90
2021/05/15 01:22:53;;;;;;;3.10;0.80;;;26.90;99.90;;;;;;5036144;28;20252;-90
2021/05/15 01:25:22;;;;;;;3.23;1.17;;;26.80;99.90;;;;;;5038048;28;20727;-90
2021/05/15 01:27:51;;;;;;;2.07;1.10;;;27.40;99.90;;;;;;5017728;28;20236;-90
2021/05/15 01:30:22;;;;;;;1.77;0.97;;;27.60;99.60;;;;;;5035887;28;20654;-90
2021/05/15 01:32:50;;;;;;;2.70;0.87;;;27.60;99.90;;;;;;5036374;28;20287;-90
2021/05/15 01:35:19;;;;;;;2.40;1.00;;;27.60;99.90;;;;;;5038682;28;20703;-88
2021/05/15 01:37:48;;;;;;;2.77;0.93;;;27.90;99.00;;;;;;5034957;28;20200;-89
2021/05/15 01:40:19;;;;;;;2.40;0.80;;;28.00;98.30;;;;;;5034362;28;20209;-90
2021/05/15 01:42:49;;;;;;;1.73;0.80;;;28.00;98.10;;;;;;5039917;28;20248;-89
2021/05/15 01:45:20;;;;;;;1.90;1.07;;;28.00;97.80;;;;;;5035095;28;20277;-89
2021/05/15 01:47:49;;;;;;;1.03;0.70;;;27.30;98.50;;;;;;5038079;28;20323;-89
2021/05/15 01:50:20;;;;;;;4.23;1.00;;;26.70;99.20;;;;;;5034086;28;20197;-87
2021/05/15 01:52:48;;;;;;;2.07;0.90;;;26.40;99.20;;;;;;5034390;28;20637;-89
2021/05/15 01:55:23;;;;;;;4.50;0.80;;;26.50;98.90;;;;;;5034340;28;20198;-89
2021/05/15 01:57:52;;;;;;;1.37;0.80;;;26.30;99.10;;;;;;5019287;28;20204;-90
2021/05/15 02:00:21;;;;;;;3.63;0.90;;;25.90;99.30;;;;;;5036122;28;20201;-90
2021/05/15 02:02:50;;;;;;;1.17;0.80;;;24.60;99.90;;;;;;5042823;28;20282;-90
2021/05/15 02:05:19;;;;;;;1.33;0.63;;;24.10;99.90;;;;;;5044120;28;20197;-91
2021/05/15 02:07:48;;;;;;;4.30;0.80;;;23.50;99.90;;;;;;5044394;28;20220;-91
2021/05/15 02:10:18;;;;;;;1.13;0.83;;;23.00;99.90;;;;;;5039039;28;20255;-91
2021/05/15 02:12:47;;;;;;;1.30;0.87;;;22.40;99.90;;;;;;5034588;28;20280;-91
2021/05/15 02:15:16;;;;;;;2.50;0.80;;;22.00;99.90;;;;;;5036003;28;20209;-89
2021/05/15 02:17:45;;;;;;;0.93;0.70;;;21.70;99.90;;;;;;5035426;28;20202;-91
2021/05/15 02:20:15;;;;;;;1.43;0.80;;;21.50;99.90;;;;;;5016768;28;20564;-92
2021/05/15 02:22:44;;;;;;;0.90;0.77;;;21.30;99.90;;;;;;5034926;28;20197;-91
2021/05/15 02:25:13;;;;;;;2.17;0.67;;;21.20;99.90;;;;;;5018739;28;20277;-92
2021/05/15 02:27:44;;;;;;;3.67;1.00;;;21.00;99.90;;;;;;5036047;28;20239;-92
2021/05/15 02:30:14;;;;;;;3.33;1.30;;;20.90;99.90;;;;;;5035333;28;20248;-92
2021/05/15 02:32:43;;;;;;;1.80;1.17;;;20.90;99.90;;;;;;5035363;28;20213;-92
2021/05/15 02:35:12;;;;;;;2.03;1.00;;;20.80;99.90;;;;;;5034810;28;20210;-91
2021/05/15 02:37:41;;;;;;;2.33;1.13;;;20.70;99.90;;;;;;5017851;28;20354;-92
2021/05/15 02:40:11;;;;;;;4.07;0.93;;;20.60;99.90;;;;;;5017614;28;20209;-91
2021/05/15 02:42:40;;;;;;;3.13;1.53;;;20.50;99.90;;;;;;5022396;28;20212;-91
2021/05/15 02:45:13;;;;;;;5.13;1.30;;;20.40;99.90;;;;;;5041050;28;20205;-92
2021/05/15 02:47:42;;;;;;;1.40;1.17;;;20.30;99.90;;;;;;5025350;28;20244;-90
2021/05/15 02:50:13;;;;;;;3.30;1.10;;;20.10;99.90;;;;;;5042111;28;20647;-90
2021/05/15 02:52:42;;;;;;;2.70;1.17;;;19.90;99.90;;;;;;5049559;28;20612;-90
2021/05/15 02:55:13;;;;;;;2.70;1.20;;;19.80;99.90;;;;;;5050919;28;20200;-91
2021/05/15 02:57:44;;;;;;;3.30;1.30;;;19.60;99.90;;;;;;5058595;28;20263;-91
2021/05/15 03:00:17;;;;;;;3.10;1.50;;;19.50;99.90;;;;;;5058333;28;20211;-90
2021/05/15 03:02:48;;;;;;;3.67;1.43;;;19.40;99.90;;;;;;5059592;28;20193;-91
2021/05/15 03:05:18;;;;;;;2.63;1.07;;;19.30;99.90;;;;;;5057378;28;20193;-92
2021/05/15 03:07:47;;;;;;;2.60;1.17;;;19.10;99.90;;;;;;5058304;28;20208;-91
2021/05/15 03:10:23;;;;;;;2.53;1.20;;;18.90;99.90;;;;;;5066615;28;20268;-91
2021/05/15 03:12:52;;;;;;;2.10;1.10;;;18.80;99.90;;;;;;5075478;28;20224;-91
2021/05/15 03:15:25;;;;;;;2.93;1.27;;;18.70;99.90;;;;;;5054749;28;20200;-91
2021/05/15 03:17:56;;;;;;;2.00;1.23;;;18.60;99.90;;;;;;5060423;28;20199;-91
2021/05/15 03:20:26;;;;;;;4.27;1.10;;;18.50;99.90;;;;;;5041446;28;20207;-91
2021/05/15 03:22:55;;;;;;;2.27;1.10;;;18.40;99.90;;;;;;5058824;28;20688;-91
2021/05/15 03:25:24;;;;;;;3.97;1.23;;;18.20;99.90;;;;;;5058896;28;20208;-91
2021/05/15 03:27:53;;;;;;;3.23;1.57;;;18.20;99.90;;;;;;5058514;28;20285;-91
2021/05/15 03:30:23;;;;;;;2.40;1.27;;;18.10;99.90;;;;;;5039366;28;20200;-91
2021/05/15 03:32:52;;;;;;;3.20;1.47;;;18.00;99.90;;;;;;5058267;28;20192;-92
2021/05/15 03:35:21;;;;;;;1.83;1.10;;;17.90;99.90;;;;;;5060522;28;20200;-91
2021/05/15 03:37:50;;;;;;;3.40;1.30;;;17.80;99.90;;;;;;5059996;28;20268;-92
2021/05/15 03:40:19;;;;;;;4.47;1.20;;;17.80;99.90;;;;;;5057085;28;20637;-90
2021/05/15 03:42:48;;;;;;;1.80;1.20;;;17.70;99.90;;;;;;5058746;28;20208;-91
2021/05/15 03:45:17;;;;;;;2.33;1.10;;;17.60;99.90;;;;;;5057616;28;20200;-91
2021/05/15 03:47:46;;;;;;;4.83;1.40;;;17.50;99.90;;;;;;5058814;28;20224;-90
2021/05/15 03:50:15;;;;;;;3.90;1.20;;;17.40;99.90;;;;;;5057209;28;20204;-91
2021/05/15 03:52:44;;;;;;;4.47;1.20;;;17.30;99.90;;;;;;5056654;28;20231;-91
2021/05/15 03:55:13;;;;;;;2.30;1.17;;;17.20;99.90;;;;;;5056730;28;20208;-91
2021/05/15 03:57:41;;;;;;;4.00;1.30;;;17.10;99.90;;;;;;5057266;28;20204;-91
2021/05/15 04:00:11;;;;;;;4.03;1.40;;;17.10;99.90;;;;;;5060703;28;20276;-90
2021/05/15 04:02:40;;;;;;;4.97;1.37;;;17.00;99.90;;;;;;5058327;28;20204;-91
2021/05/15 04:05:12;;;;;;;3.73;1.67;;;16.90;99.90;;;;;;5020385;28;20283;-91
2021/05/15 04:07:40;;;;;;;3.07;1.70;;;16.90;99.90;;;;;;5037045;28;20241;-90
2021/05/15 04:10:09;;;;;;;4.63;1.73;;;16.80;99.90;;;;;;5036084;28;20200;-90
2021/05/15 04:12:47;;;;;;;5.63;2.40;;;16.80;99.90;;;;;;5037001;28;20200;-90
2021/05/15 04:15:33;;;;;;;4.50;1.80;;;16.80;99.90;;;;;;5036907;28;20323;-90
2021/05/15 04:18:07;;;;;;;4.53;1.73;;;16.70;99.90;;;;;;5037191;28;20279;-91
2021/05/15 04:20:39;;;;;;;5.00;1.90;;;16.60;99.90;;;;;;5035596;28;20201;-91
2021/05/15 04:23:08;;;;;;;3.30;2.00;;;16.60;99.90;;;;;;5037081;28;20204;-92
2021/05/15 04:25:37;;;;;;;3.27;1.80;;;16.50;99.90;;;;;;5037340;28;20208;-92
2021/05/15 04:28:08;;;;;;;3.80;1.60;;;16.50;99.90;;;;;;5036292;28;20228;-91
2021/05/15 04:30:36;;;;;;;4.27;1.60;;;16.40;99.90;;;;;;5035353;28;20307;-91
2021/05/15 04:33:05;;;;;;;4.07;1.60;;;16.40;99.90;;;;;;5038253;28;20201;-91
2021/05/15 04:35:35;;;;;;;2.23;1.40;;;16.30;99.90;;;;;;5021221;28;20201;-91
2021/05/15 04:38:07;;;;;;;2.73;1.47;;;16.30;99.90;;;;;;5038998;28;20296;-90
2021/05/15 04:40:37;;;;;;;4.47;1.57;;;16.30;99.90;;;;;;5002474;28;20661;-90
2021/05/15 04:43:06;;;;;;;2.60;1.60;;;16.20;99.90;;;;;;5036555;28;20205;-90
2021/05/15 04:45:34;;;;;;;4.27;1.70;;;16.20;99.90;;;;;;5021824;28;20654;-91
2021/05/15 04:48:03;;;;;;;4.47;1.70;;;16.10;99.90;;;;;;5036143;28;20574;-90
2021/05/15 04:50:31;;;;;;;2.57;1.77;;;16.00;99.90;;;;;;5017522;28;20204;-91
2021/05/15 04:52:59;;;;;;;4.70;1.70;;;16.00;99.90;;;;;;5035317;28;20209;-91
2021/05/15 04:55:30;;;;;;;4.83;2.33;;;15.90;99.90;;;;;;5037496;28;20237;-91
2021/05/15 04:58:00;;;;;;;4.63;2.40;;;15.80;99.90;;;;;;5036821;28;20212;-91
2021/05/15 05:00:29;;;;;;;4.63;2.17;;;15.60;99.90;;;;;;5037971;28;20278;-91
2021/05/15 05:03:02;;;;;;;5.07;2.10;;;15.50;99.90;;;;;;5037564;28;20565;-90
2021/05/15 05:05:33;;;;;;;4.07;2.00;;;15.50;99.90;;;;;;5037558;28;20296;-90
2021/05/15 05:08:01;;;;;;;7.50;2.80;;;15.40;99.90;;;;;;5051238;28;20231;-90
2021/05/15 05:10:33;;;;;;;5.37;2.03;;;15.30;99.90;;;;;;5056917;28;20223;-90
2021/05/15 05:13:04;;;;;;;4.57;2.10;;;15.20;99.90;;;;;;5056053;28;20947;-90
2021/05/15 05:15:33;;;;;;;6.47;2.73;;;15.20;99.90;;;;;;5059484;28;20215;-89
2021/05/15 05:18:02;;;;;;;5.43;1.80;;;15.10;99.90;;;;;;5056457;28;20200;-90
2021/05/15 05:20:31;;;;;;;4.63;2.10;;;15.00;99.90;;;;;;5037599;28;20216;-91
2021/05/15 05:23:00;;;;;;;7.37;2.03;;;14.80;99.90;;;;;;5057364;28;20223;-90
2021/05/15 05:25:29;;;;;;;6.33;2.27;;;14.70;99.90;;;;;;5055531;28;20204;-91
2021/05/15 05:27:59;;;;;;;6.57;2.10;;;14.60;99.90;;;;;;5055786;28;20574;-90
2021/05/15 05:30:29;;;;;;;6.27;2.47;;;14.70;99.90;;;;;;5057385;28;20205;-91
2021/05/15 05:32:57;;;;;;;4.03;1.73;;;14.60;99.90;;;;;;5069079;28;20237;-90
2021/05/15 05:35:26;;;;;;;7.90;2.10;;;14.60;99.90;;;;;;5072166;28;20226;-90
2021/05/15 05:37:55;;;;;;;5.10;1.73;;;14.40;99.90;;;;;;5071526;28;20204;-90
2021/05/15 05:40:24;;;;;;;4.80;1.70;;;14.30;99.90;;;;;;5067481;28;20220;-90
2021/05/15 05:42:53;;;;;;;4.77;1.80;;;14.20;99.90;;;;;;5039168;28;20207;-90
2021/05/15 05:45:24;;;;;;;7.17;1.90;;;14.10;99.90;;;;;;5057184;28;20227;-91
2021/05/15 05:47:53;;;;;;;5.90;1.80;;;14.10;99.90;;;;;;5054968;28;20236;-90
2021/05/15 05:50:21;;;;;;;6.33;1.87;;;14.10;99.90;;;;;;5054413;28;20193;-90
2021/05/15 05:52:50;;;;;;;4.07;1.50;;;14.00;99.90;;;;;;5059064;28;20196;-90
2021/05/15 05:55:19;;;;;;;6.07;1.97;;;14.00;99.90;;;;;;5058119;28;20207;-90
2021/05/15 05:57:48;;;;;;;6.73;2.03;;;13.90;99.90;;;;;;5057100;28;20207;-90
2021/05/15 06:00:17;;;;;;;4.13;1.70;;;13.90;99.90;;;;;;5054895;28;20212;-90
2021/05/15 06:02:48;;;;;;;5.27;1.60;;;13.90;99.90;;;;;;5055636;28;20204;-90
2021/05/15 06:05:19;;;;;;;5.83;1.80;;;13.80;99.90;;;;;;5054684;28;20200;-90
2021/05/15 06:07:48;;;;;;;7.27;2.30;;;13.70;99.90;;;;;;5055200;28;20589;-90
2021/05/15 06:10:17;;;;;;;6.70;2.10;;;13.70;99.90;;;;;;5053607;28;20205;-90
2021/05/15 06:12:45;;;;;;;7.37;2.67;;;13.70;99.90;;;;;;5054673;28;20200;-90
2021/05/15 06:15:15;;;;;;;8.47;2.63;;;13.60;99.90;;;;;;5053365;28;20226;-90
2021/05/15 06:17:43;;;;;;;6.10;2.17;;;13.60;99.90;;;;;;5054840;28;20199;-91
2021/05/15 06:20:15;;;;;;;8.73;2.23;;;13.60;99.90;;;;;;5061393;28;20200;-91
2021/05/15 06:22:44;;;;;;;5.60;2.10;;;13.50;99.90;;;;;;5058719;28;20608;-91
2021/05/15 06:25:14;;;;;;;7.03;2.03;;;13.40;99.90;;;;;;5058474;28;20211;-90
2021/05/15 06:27:43;;;;;;;7.57;2.07;;;13.30;99.90;;;;;;5059438;28;20235;-90
2021/05/15 06:30:13;;;;;;;5.83;2.27;;;13.20;99.90;;;;;;5057606;28;20204;-90
2021/05/15 06:32:42;;;;;;;5.10;2.10;;;13.20;99.90;;;;;;5058006;28;20207;-89
2021/05/15 06:35:14;;;;;;;6.87;2.30;;;13.10;99.90;;;;;;5057550;28;20223;-90
2021/05/15 06:37:43;;;;;;;6.40;2.13;;;13.10;99.90;;;;;;5037984;28;20197;-90
2021/05/15 06:40:12;;;;;;;6.77;1.87;;;13.10;99.90;;;;;;5036976;28;20262;-90
2021/05/15 06:42:41;;;;;;;5.23;2.27;;;13.10;99.90;;;;;;5038497;28;20197;-89
2021/05/15 06:45:11;;;;;;;5.97;2.10;;;13.00;99.90;;;;;;5037342;28;20236;-89
2021/05/15 06:47:40;;;;;;;8.10;1.90;;;13.00;99.90;;;;;;5036620;28;20229;-91
2021/05/15 06:50:10;;;;;;;6.43;2.10;;;13.00;99.90;;;;;;5036667;28;20205;-90
2021/05/15 06:52:40;;;;;;;7.20;2.10;;;12.90;99.90;;;;;;5037956;28;20267;-89
2021/05/15 06:55:10;;;;;;;7.23;2.17;;;12.90;99.90;;;;;;5037187;28;20193;-90
2021/05/15 06:57:39;;;;;;;7.07;2.30;;;12.90;99.90;;;;;;5037107;28;20201;-88
2021/05/15 07:00:11;;;;;;;7.20;2.30;;;12.80;99.90;;;;;;5036384;28;20217;-91
2021/05/15 07:02:40;;;;;;;8.80;2.50;;;12.80;99.90;;;;;;5019995;28;20201;-90
2021/05/15 07:05:09;;;;;;;8.03;2.57;;;12.80;99.90;;;;;;5036770;28;20208;-90
2021/05/15 07:07:40;;;;;;;6.70;2.27;;;12.80;99.90;;;;;;5037690;28;20290;-90
2021/05/15 07:10:09;;;;;;;6.77;2.13;;;12.70;99.90;;;;;;5036658;28;20270;-89
2021/05/15 07:12:37;;;;;;;7.10;2.03;;;12.60;99.90;;;;;;5039396;28;20205;-89
2021/05/15 07:15:07;;;;;;;6.97;2.07;;;12.60;99.90;;;;;;5037886;28;20201;-89
2021/05/15 07:17:36;;;;;;;5.27;2.47;;;12.60;99.90;;;;;;5037569;28;20374;-89
2021/05/15 07:20:06;;;;;;;4.80;2.07;;;12.60;99.90;;;;;;5036624;28;20250;-90
2021/05/15 07:22:34;;;;;;;5.33;1.70;;;12.60;99.90;;;;;;5036993;28;20200;-90
2021/05/15 07:25:05;;;;;;;9.10;2.40;;;12.50;99.90;;;;;;5039795;28;20197;-90
2021/05/15 07:27:34;;;;;;;4.70;1.67;;;12.60;99.90;;;;;;5037439;28;20224;-90
2021/05/15 07:30:04;;;;;;;6.27;2.23;;;12.60;99.90;;;;;;5018096;28;20201;-91
2021/05/15 07:32:32;;;;;;;8.07;2.30;;;12.60;99.90;;;;;;5036940;28;20209;-90
2021/05/15 07:35:01;;;;;;;8.10;2.47;;;12.50;99.90;;;;;;5038739;28;20255;-91
2021/05/15 07:37:31;;;;;;;5.70;2.03;;;12.40;99.90;;;;;;5038750;28;20205;-90
2021/05/15 07:40:00;;;;;;;5.87;2.27;;;12.40;99.90;;;;;;5003995;28;20259;-92
2021/05/15 07:42:30;;;;;;;9.17;2.30;;;12.30;99.90;;;;;;5038233;28;20235;-90
2021/05/15 07:44:59;;;;;;;5.73;2.40;;;12.30;99.90;;;;;;5038191;28;20194;-90
2021/05/15 07:47:29;;;;;;;6.40;2.27;;;12.30;99.90;;;;;;5038653;28;20225;-91
2021/05/15 07:49:58;;;;;;;5.07;2.13;;;12.30;99.90;;;;;;5037762;28;20223;-90
2021/05/15 07:52:28;;;;;;;6.07;2.13;;;12.30;99.90;;;;;;5037412;28;20205;-90
2021/05/15 07:54:56;;;;;;;5.80;2.43;;;12.20;99.90;;;;;;5037634;28;20208;-90
2021/05/15 07:57:25;;;;;;;6.77;2.07;;;12.10;99.90;;;;;;5050864;28;20212;-90
2021/05/15 07:59:56;;;;;;;8.57;2.07;;;12.10;99.90;;;;;;5053892;28;20209;-90
2021/05/15 08:02:27;;;;;;;4.33;2.27;;;12.10;99.90;;;;;;5051253;28;20200;-90
2021/05/15 08:04:58;;;;;;;8.23;2.53;;;12.00;99.90;;;;;;5040958;28;20255;-91
2021/05/15 08:07:27;;;;;;;5.80;2.67;;;12.00;99.90;;;;;;5038063;28;20708;-90
2021/05/15 08:09:56;;;;;;;6.30;2.23;;;11.90;99.90;;;;;;5040655;28;20197;-89
2021/05/15 08:12:25;;;;;;;4.00;2.03;;;11.90;99.90;;;;;;5028110;28;20201;-89
2021/05/15 08:14:55;;;;;;;7.73;2.30;;;11.90;99.90;;;;;;5056454;28;20181;-89
2021/05/15 08:17:24;;;;;;;6.10;2.50;;;11.90;99.90;;;;;;5054350;28;20213;-89
2021/05/15 08:19:53;;;;;;;7.93;2.53;;;11.80;99.90;;;;;;5049218;28;20231;-91
2021/05/15 08:22:22;;;;;;;6.67;2.50;;;11.80;99.90;;;;;;5056337;28;20189;-91
2021/05/15 08:24:51;;;;;;;7.63;2.80;;;11.80;99.90;;;;;;5057892;28;20197;-89
2021/05/15 08:27:20;;;;;;;6.57;2.20;;;11.70;99.90;;;;;;5057533;28;20178;-90
2021/05/15 08:29:49;;;;;;;7.40;2.17;;;11.60;99.90;;;;;;5057007;28;20177;-90
2021/05/15 08:32:20;;;;;;;8.10;2.50;;;11.60;99.90;;;;;;5041079;28;20216;-90
2021/05/15 08:34:48;;;;;;;5.50;2.43;;;11.50;99.90;;;;;;5036154;28;20255;-90
2021/05/15 08:37:17;;;;;;;8.50;2.50;;;11.50;99.90;;;;;;5035545;28;20267;-90
2021/05/15 08:39:46;;;;;;;5.40;2.00;;;11.50;99.90;;;;;;5018431;28;20634;-89
2021/05/15 08:42:18;;;;;;;5.57;2.40;;;11.50;99.90;;;;;;5034118;28;20666;-90
2021/05/15 08:44:49;;;;;;;9.90;2.23;;;11.50;99.90;;;;;;5015924;28;20574;-90
2021/05/15 08:47:20;;;;;;;6.57;2.67;;;11.50;99.90;;;;;;5015707;28;20198;-90
2021/05/15 08:49:50;;;;;;;10.20;2.50;;;11.50;99.90;;;;;;5015383;28;20205;-89
2021/05/15 08:52:19;;;;;;;6.67;2.53;;;11.40;99.90;;;;;;4997876;28;20213;-89
2021/05/15 08:54:48;;;;;;;7.80;2.07;;;11.50;99.90;;;;;;5016235;28;20194;-89
2021/05/15 08:57:17;;;;;;;4.17;2.00;;;11.40;99.90;;;;;;5015521;28;20202;-89
2021/05/15 08:59:47;;;;;;;9.27;3.00;;;11.30;99.90;;;;;;5015592;28;20565;-90
2021/05/15 09:02:18;;;;;;;8.13;2.43;;;11.40;99.90;;;;;;5014926;28;20570;-90
2021/05/15 09:05:10;;;;;;;4.70;2.10;;;11.40;99.90;;;;;;5015745;28;20225;-90
2021/05/15 09:07:46;;;;;;;5.93;2.00;;;11.30;99.90;;;;;;5015291;28;20261;-90
2021/05/15 09:10:18;;;;;;;6.83;2.53;;;11.20;99.90;;;;;;4997763;28;20552;-89
2021/05/15 09:13:07;;;;;;;5.30;2.03;;;11.20;99.90;;;;;;5015653;28;20288;-90
2021/05/15 09:15:43;;;;;;;9.47;2.63;;;11.20;99.90;;;;;;5029662;28;20244;-89
2021/05/15 09:18:17;;;;;;;10.03;2.37;;;11.20;99.90;;;;;;5036769;28;20228;-90
2021/05/15 09:20:52;;;;;;;7.67;2.83;;;11.10;99.90;;;;;;5033765;28;20292;-90
2021/05/15 09:23:25;;;;;;;8.03;2.80;;;11.10;99.90;;;;;;5035708;28;20201;-90
2021/05/15 09:26:01;;;;;;;7.80;2.40;;;11.20;99.90;;;;;;5017766;28;20276;-90
2021/05/15 09:28:40;;;;;;;4.20;2.07;;;11.10;99.90;;;;;;5034605;28;20316;-90
2021/05/15 09:31:14;;;;;;;5.90;2.10;;;11.10;99.90;;;;;;5017235;28;20295;-90
2021/05/15 09:33:46;;;;;;;6.37;2.43;;;11.00;99.90;;;;;;5035043;28;20212;-90
2021/05/15 09:36:21;;;;;;;5.17;2.37;;;11.00;99.90;;;;;;5035172;28;20212;-90
2021/05/15 09:39:10;;;;;;;10.20;2.47;;;11.00;99.90;;;;;;5019444;28;20576;-90
2021/05/15 09:41:44;;;;;;;7.60;2.27;;;11.00;99.90;;;;;;5035559;28;20232;-91
2021/05/15 09:44:17;;;;;;;8.47;2.63;;;10.90;99.90;;;;;;5035440;28;20262;-89
2021/05/15 09:46:48;;;;;;;6.43;2.90;;;10.90;99.90;;;;;;5037756;28;20300;-90
2021/05/15 09:49:25;;;;;;;7.57;2.60;;;10.90;99.90;;;;;;5039015;28;20272;-88
2021/05/15 09:52:00;;;;;;;7.97;2.73;;;10.80;99.90;;;;;;5037469;28;20232;-89
2021/05/15 09:54:32;;;;;;;9.00;2.63;;;10.90;99.90;;;;;;5036124;28;20239;-90
2021/05/15 09:57:06;;;;;;;7.00;2.60;;;10.80;99.90;;;;;;5037846;28;20280;-90
2021/05/15 09:59:39;;;;;;;7.33;2.90;;;10.80;99.90;;;;;;5018699;28;20637;-90
2021/05/15 10:02:11;;;;;;;8.07;2.40;;;10.70;99.90;;;;;;5017274;28;20247;-90
2021/05/15 10:04:43;;;;;;;8.47;2.57;;;10.60;99.90;;;;;;5035942;28;20225;-89
2021/05/15 10:07:21;;;;;;;7.30;2.70;;;10.60;99.90;;;;;;5036862;28;20213;-88
2021/05/15 10:09:51;;;;;;;7.50;2.60;;;10.60;99.90;;;;;;5036912;28;20256;-90
2021/05/15 10:12:23;;;;;;;9.33;2.83;;;10.50;99.90;;;;;;5042877;28;20204;-89
2021/05/15 10:14:53;;;;;;;6.37;2.50;;;10.50;99.90;;;;;;5044747;28;20250;-90
2021/05/15 10:17:24;;;;;;;6.00;2.47;;;10.50;99.90;;;;;;5036446;28;20208;-90
2021/05/15 10:19:56;;;;;;;10.03;2.37;;;10.60;99.90;;;;;;5045329;28;20213;-90
2021/05/15 10:22:29;;;;;;;5.20;2.53;;;10.60;99.90;;;;;;5046868;28;20200;-88
2021/05/15 10:25:00;;;;;;;5.40;2.93;;;10.60;99.90;;;;;;5050978;28;20225;-90
2021/05/15 10:27:36;;;;;;;6.33;2.37;;;10.50;99.90;;;;;;5022735;28;20201;-89
2021/05/15 10:30:16;;;;;;;8.23;2.63;;;10.50;99.90;;;;;;5035748;28;20569;-90
2021/05/15 10:32:58;;;;;;;8.13;2.60;;;10.40;99.90;;;;;;5035615;28;20231;-89
2021/05/15 10:35:31;;;;;;;7.97;3.03;;;10.40;99.90;;;;;;5034476;28;20650;-89
2021/05/15 10:38:09;;;;;;;7.93;2.67;;;10.40;99.90;;;;;;5029663;28;20217;-89
2021/05/15 10:40:48;;;;;;;7.23;2.83;;;10.40;99.90;;;;;;5014051;28;20259;-90
2021/05/15 10:43:32;;;;;;;6.20;2.77;;;10.40;99.90;;;;;;5014515;28;20214;-89
2021/05/15 10:46:16;;;;;;;9.10;2.67;;;10.30;99.90;;;;;;5014272;28;20667;-89
2021/05/15 10:49:01;;;;;;;6.00;2.40;;;10.30;99.90;;;;;;5013844;28;20264;-89
2021/05/15 10:51:44;;;;;;;5.70;2.40;;;10.30;99.90;;;;;;5015135;28;20216;-89
2021/05/15 10:54:19;;;;;;;5.53;2.37;;;10.30;99.90;;;;;;5014525;28;20221;-89
2021/05/15 10:57:01;;;;;;;6.27;2.33;;;10.20;99.90;;;;;;5014305;28;20240;-89
2021/05/15 10:59:33;;;;;;;4.57;2.37;;;10.10;99.90;;;;;;5014253;28;20224;-89
2021/05/15 11:02:08;;;;;;;6.97;2.63;;;10.00;99.90;;;;;;5013233;28;20237;-89
2021/05/15 11:04:51;;;;;;;7.07;2.70;;;9.90;99.90;;;;;;5016959;28;20613;-89
2021/05/15 11:07:24;;;;;;;9.03;2.90;;;10.00;99.90;;;;;;5018325;28;20251;-89
2021/05/15 11:10:07;;;;;;;6.07;2.23;;;10.00;99.90;;;;;;5017263;28;20283;-90
2021/05/15 11:12:43;;;;;;;6.83;2.80;;;10.00;99.90;;;;;;5017323;28;20257;-90
2021/05/15 11:15:14;;;;;;;7.83;2.70;;;10.00;99.90;;;;;;5017691;28;20289;-90
2021/05/15 11:17:46;;;;;;;7.70;2.97;;;10.00;99.90;;;;;;5000659;28;20255;-90
2021/05/15 11:20:19;;;;;;;6.40;2.73;;;9.90;99.90;;;;;;5017008;28;20209;-90
2021/05/15 11:22:51;;;;;;;7.90;3.00;;;9.90;99.90;;;;;;5018098;28;20627;-90
2021/05/15 11:25:27;;;;;;;9.87;2.80;;;9.90;99.90;;;;;;5037531;28;20216;-90
2021/05/15 11:28:02;;;;;;;9.20;3.00;;;9.90;99.90;;;;;;5037429;28;20223;-90
2021/05/15 11:30:35;;;;;;;9.10;3.47;;;9.80;99.90;;;;;;5036644;28;20208;-89
2021/05/15 11:33:08;;;;;;;9.43;3.00;;;9.80;99.90;;;;;;5037262;28;20233;-90
2021/05/15 11:35:41;;;;;;;7.97;2.90;;;9.90;99.90;;;;;;5036628;28;20224;-89
2021/05/15 11:38:14;;;;;;;8.57;2.80;;;9.90;99.90;;;;;;5020159;28;20205;-90
2021/05/15 11:40:57;;;;;;;8.20;2.93;;;9.80;99.90;;;;;;5036561;28;20674;-89
2021/05/15 11:43:29;;;;;;;6.60;2.57;;;9.80;99.90;;;;;;5037380;28;20211;-89
2021/05/15 11:46:01;;;;;;;11.00;3.23;;;9.80;99.90;;;;;;5036776;28;20209;-90
2021/05/15 11:48:32;;;;;;;10.10;3.10;;;9.80;99.90;;;;;;5036678;28;20225;-89
2021/05/15 11:51:05;;;;;;;8.90;3.10;;;9.80;99.90;;;;;;5055626;28;20236;-89
2021/05/15 11:53:38;;;;;;;9.20;3.43;;;9.70;99.90;;;;;;5056570;28;20208;-89
2021/05/15 11:56:15;;;;;;;8.63;3.03;;;9.70;99.90;;;;;;5057086;28;20645;-89
2021/05/15 11:58:47;;;;;;;7.17;3.30;;;9.70;99.90;;;;;;5056683;28;20672;-90
2021/05/15 12:01:21;;;;;;;11.30;3.63;;;9.80;99.90;;;;;;5055967;28;20208;-91
2021/05/15 12:03:52;;;;;;;13.70;3.37;;;9.70;99.90;;;;;;5057890;28;20200;-90
2021/05/15 12:06:23;;;;;;;6.37;3.30;;;9.80;99.90;;;;;;5039813;28;20226;-90
2021/05/15 12:08:53;;;;;;;14.23;3.70;;;9.70;99.90;;;;;;5060383;28;20243;-90
2021/05/15 12:11:28;;;;;;;8.07;3.47;;;9.70;99.90;;;;;;5061683;28;20204;-89
2021/05/15 12:13:59;;;;;;;12.70;3.90;;;9.60;99.90;;;;;;5063018;28;20219;-90
2021/05/15 12:16:30;;;;;;;10.67;3.67;;;9.60;99.90;;;;;;5044314;28;20227;-90
2021/05/15 12:19:01;;;;;;;10.30;3.70;;;9.60;99.90;;;;;;5058335;28;20204;-91
2021/05/15 12:21:32;;;;;;;9.90;3.17;;;9.60;99.90;;;;;;5055418;28;20231;-90
2021/05/15 12:24:04;;;;;;;8.43;2.93;;;9.50;99.90;;;;;;5038981;28;20212;-90
2021/05/15 12:26:37;;;;;;;9.37;3.60;;;9.50;99.90;;;;;;5056444;28;20228;-90
2021/05/15 12:29:07;;;;;;;8.63;3.33;;;9.50;99.90;;;;;;5055669;28;20231;-90
2021/05/15 12:31:39;;;;;;;9.83;3.87;;;9.40;99.90;;;;;;5055599;28;20269;-90
2021/05/15 12:34:10;;;;;;;10.53;3.13;;;9.40;99.90;;;;;;5043185;28;20272;-90
2021/05/15 12:36:43;;;;;;;9.80;3.40;;;9.40;99.90;;;;;;5036964;28;20216;-91
2021/05/15 12:39:14;;;;;;;7.80;3.20;;;9.40;99.90;;;;;;5036984;28;20236;-90
2021/05/15 12:41:47;;;;;;;12.37;3.27;;;9.30;99.90;;;;;;5032902;28;20214;-90
2021/05/15 12:44:19;;;;;;;12.70;4.00;;;9.40;99.90;;;;;;5033554;28;20222;-90
2021/05/15 12:46:51;;;;;;;10.67;4.13;;;9.40;99.90;;;;;;5045050;28;20215;-91
2021/05/15 12:49:22;;;;;;;10.30;3.53;;;9.40;99.90;;;;;;5037279;28;20240;-90
2021/05/15 12:51:55;;;;;;;9.47;3.43;;;9.30;99.90;;;;;;5037037;28;20248;-90
2021/05/15 12:54:30;;;;;;;13.77;3.40;;;9.30;99.90;;;;;;5036428;28;20282;-90
2021/05/15 12:57:05;;;;;;;14.73;4.17;;;9.30;99.90;;;;;;5036224;28;20211;-90
2021/05/15 12:59:39;;;;;;;7.73;3.33;;;9.40;99.90;;;;;;5035779;28;20676;-90
2021/05/15 13:02:15;;;;;;;12.57;3.73;;;9.30;99.90;;;;;;5034886;28;20215;-89
2021/05/15 13:04:47;;;;;;;13.37;4.47;;;9.30;99.90;;;;;;5035706;28;20551;-90
2021/05/15 13:07:29;;;;;;;11.83;3.63;;;9.40;99.90;;;;;;5035880;28;20263;-90